Time;durP1;ratioP1;P1;durP2;ratioP2;P2;SDS_P1;SDS_P2;PMS_P1;PMS_P2;Temp;Humidity;BMP_temperature;BMP_pressure;BME280_temperature;BME280_humidity;BME280_pressure;Samples;Min_cycle;Max_cycle;Signal;HPM_P1;HPM_P2
2024/01/14 00:00:22;;;;;;;11.80;4.70;;;;;;;-6.94;74.52;99167.52;78175;1296;3025190;-66
2024/01/14 00:02:49;;;;;;;10.30;4.90;;;;;;;-6.91;74.26;99164.30;79426;1299;3013413;-70
2024/01/14 00:05:15;;;;;;;20.40;5.40;;;;;;;-6.90;74.36;99157.84;79469;1300;3011774;-70
2024/01/14 00:07:43;;;;;;;13.80;4.60;;;;;;;-6.87;74.75;99160.41;78144;1301;3026345;-69
2024/01/14 00:10:10;;;;;;;13.20;4.20;;;;;;;-6.87;74.13;99157.16;79445;1297;3012760;-67
2024/01/14 00:12:37;;;;;;;10.80;4.20;;;;;;;-6.84;74.06;99154.98;79385;1298;3011698;-67
2024/01/14 00:15:05;;;;;;;11.20;3.90;;;;;;;-6.77;74.08;99152.10;78124;1298;3055850;-66
2024/01/14 00:17:32;;;;;;;7.60;4.40;;;;;;;-6.79;74.98;99153.45;79464;1301;3012975;-67
2024/01/14 00:19:59;;;;;;;12.90;4.30;;;;;;;-6.78;75.13;99140.85;79367;1301;3011904;-66
2024/01/14 00:22:27;;;;;;;7.70;3.80;;;;;;;-6.73;74.65;99144.29;78218;1301;3026390;-66
2024/01/14 00:24:53;;;;;;;10.60;4.10;;;;;;;-6.74;74.81;99142.23;79415;1299;3019078;-68
2024/01/14 00:27:20;;;;;;;10.10;4.20;;;;;;;-6.73;75.29;99143.61;79445;1299;3011604;-66
2024/01/14 00:29:47;;;;;;;11.00;3.60;;;;;;;-6.68;75.20;99143.28;78164;1299;3026283;-66
2024/01/14 00:32:14;;;;;;;8.80;3.50;;;;;;;-6.63;75.67;99149.78;79228;1298;3013598;-66
2024/01/14 00:34:41;;;;;;;7.10;3.30;;;;;;;-6.55;75.20;99145.55;79387;1301;3011601;-66
2024/01/14 00:37:08;;;;;;;16.40;3.50;;;;;;;-6.62;75.24;99146.37;78156;1301;3026994;-66
2024/01/14 00:39:38;;;;;;;5.90;2.90;;;;;;;-6.63;75.40;99147.39;79410;1297;3012736;-65
2024/01/14 00:42:07;;;;;;;9.10;4.30;;;;;;;-6.62;75.73;99146.55;78803;1298;3011421;-66
2024/01/14 00:44:34;;;;;;;10.40;3.80;;;;;;;-6.65;76.03;99141.08;79392;1298;3013171;-65
2024/01/14 00:47:02;;;;;;;12.80;5.10;;;;;;;-6.66;76.47;99142.61;79454;1301;3011612;-66
2024/01/14 00:49:30;;;;;;;7.30;3.60;;;;;;;-6.65;76.74;99138.86;78182;1301;3052725;-67
2024/01/14 00:51:57;;;;;;;7.80;3.60;;;;;;;-6.60;76.45;99136.16;79494;1301;3013631;-66
2024/01/14 00:54:23;;;;;;;9.70;4.00;;;;;;;-6.53;76.32;99132.59;79429;1300;3011578;-65
2024/01/14 00:56:51;;;;;;;11.00;4.10;;;;;;;-6.57;76.24;99134.80;78272;1301;3026442;-68
2024/01/14 00:59:18;;;;;;;9.30;3.50;;;;;;;-6.54;76.91;99129.02;79485;1300;3013773;-67
2024/01/14 01:01:45;;;;;;;7.10;3.30;;;;;;;-6.50;76.59;99123.57;79432;1297;3011926;-70
2024/01/14 01:04:12;;;;;;;7.90;3.10;;;;;;;-6.47;76.13;99118.48;78171;1300;3027421;-71
2024/01/14 01:06:39;;;;;;;7.50;3.10;;;;;;;-6.44;76.24;99112.69;79445;1301;3012872;-66
2024/01/14 01:09:06;;;;;;;8.30;3.90;;;;;;;-6.38;76.00;99103.15;79410;1298;3012535;-69
2024/01/14 01:11:34;;;;;;;7.50;3.50;;;;;;;-6.44;76.35;99099.73;78187;1301;3026343;-69
2024/01/14 01:14:00;;;;;;;5.90;3.00;;;;;;;-6.48;77.10;99098.02;79407;1295;3018778;-70
2024/01/14 01:16:27;;;;;;;5.20;2.80;;;;;;;-6.41;76.65;99097.52;79401;1296;3011684;-68
2024/01/14 01:18:54;;;;;;;6.20;2.90;;;;;;;-6.32;76.67;99097.70;78223;1296;3026408;-67
2024/01/14 01:21:22;;;;;;;7.80;3.20;;;;;;;-6.28;76.38;99092.60;79493;1302;3013775;-66
2024/01/14 01:23:49;;;;;;;9.30;3.40;;;;;;;-6.37;76.36;99089.69;79457;1301;3013207;-67
2024/01/14 01:26:17;;;;;;;7.10;3.50;;;;;;;-6.48;77.26;99098.18;78223;1300;3069158;-69
2024/01/14 01:28:43;;;;;;;10.80;3.80;;;;;;;-6.37;76.62;99092.59;79388;1300;3013694;-65
2024/01/14 01:31:10;;;;;;;8.50;3.70;;;;;;;-6.31;76.68;99092.42;79472;1295;3011837;-64
2024/01/14 01:33:37;;;;;;;6.40;3.00;;;;;;;-6.34;76.57;99089.86;78199;1301;3025944;-68
2024/01/14 01:36:04;;;;;;;8.40;3.70;;;;;;;-6.43;77.14;99091.38;79486;1301;3013811;-67
2024/01/14 01:38:31;;;;;;;8.90;3.20;;;;;;;-6.46;77.43;99087.96;79456;1301;3013483;-67
2024/01/14 01:40:59;;;;;;;6.80;3.50;;;;;;;-6.35;77.72;99081.33;78258;1295;3028983;-67
2024/01/14 01:43:25;;;;;;;5.90;2.60;;;;;;;-6.32;77.66;99080.50;79317;1301;3013947;-67
2024/01/14 01:45:52;;;;;;;7.80;3.30;;;;;;;-6.29;77.50;99071.12;79377;1301;3011674;-66
2024/01/14 01:48:21;;;;;;;8.60;3.00;;;;;;;-6.31;77.46;99070.10;78308;1295;3025783;-68
2024/01/14 01:50:49;;;;;;;10.10;2.60;;;;;;;-6.28;77.87;99073.00;79491;1301;3012469;-66
2024/01/14 01:53:18;;;;;;;4.70;2.50;;;;;;;-6.36;78.37;99065.48;78918;1298;3012824;-67
2024/01/14 01:55:44;;;;;;;8.40;3.30;;;;;;;-6.43;78.54;99060.36;79473;1297;3013727;-67
2024/01/14 01:58:11;;;;;;;7.20;2.70;;;;;;;-6.15;78.52;99063.80;79422;1301;3011204;-66
2024/01/14 02:00:38;;;;;;;8.00;3.60;;;;;;;-6.23;77.90;99066.52;78254;1301;3025665;-69
2024/01/14 02:03:05;;;;;;;8.40;3.30;;;;;;;-6.21;78.46;99059.36;79439;1300;3013141;-68
2024/01/14 02:05:32;;;;;;;5.70;3.00;;;;;;;-6.34;78.64;99057.98;79407;1296;3011679;-67
2024/01/14 02:08:00;;;;;;;6.10;3.10;;;;;;;-6.30;79.07;99055.95;78216;1301;3028143;-66
2024/01/14 02:10:27;;;;;;;8.00;3.70;;;;;;;-6.22;79.17;99051.18;79432;1299;3013177;-66
2024/01/14 02:12:53;;;;;;;6.50;2.90;;;;;;;-6.26;79.30;99052.02;79332;1301;3011595;-68
2024/01/14 02:15:21;;;;;;;5.50;2.70;;;;;;;-6.26;79.11;99048.96;78256;1304;3026155;-66
2024/01/14 02:17:48;;;;;;;5.70;2.30;;;;;;;-6.30;79.37;99049.64;79404;1296;3013382;-68
2024/01/14 02:20:15;;;;;;;4.80;3.20;;;;;;;-6.32;79.53;99046.91;79413;1295;3012049;-67
2024/01/14 02:22:44;;;;;;;4.40;2.70;;;;;;;-6.32;79.83;99039.08;78340;1300;3051561;-69
2024/01/14 02:25:11;;;;;;;5.90;2.90;;;;;;;-6.29;80.18;99036.00;79435;1301;3013280;-68
2024/01/14 02:27:37;;;;;;;9.50;3.60;;;;;;;-6.23;80.35;99036.52;79424;1296;3011544;-67
2024/01/14 02:30:07;;;;;;;8.00;3.70;;;;;;;-6.15;79.65;99035.85;78244;1301;3056110;-67
2024/01/14 02:32:37;;;;;;;4.30;2.20;;;;;;;-6.16;80.16;99034.82;79487;1295;3012834;-68
2024/01/14 02:35:05;;;;;;;8.70;3.40;;;;;;;-6.25;80.61;99023.89;78253;1295;3053349;-67
2024/01/14 02:37:32;;;;;;;7.20;3.30;;;;;;;-6.19;80.84;99027.14;79416;1301;3014880;-66
2024/01/14 02:39:59;;;;;;;6.00;3.00;;;;;;;-6.17;80.54;99024.75;79427;1301;3012773;-66
2024/01/14 02:42:27;;;;;;;2.70;1.90;;;;;;;-6.17;80.90;99026.97;78198;1300;3068639;-65
2024/01/14 02:44:53;;;;;;;4.70;2.80;;;;;;;-5.88;81.50;99017.70;79415;1297;3013628;-68
2024/01/14 02:47:21;;;;;;;8.80;4.00;;;;;;;-5.23;79.49;99012.41;79396;1297;3012217;-67
2024/01/14 02:49:48;;;;;;;5.90;2.60;;;;;;;-4.86;78.07;99010.36;78488;1299;3026470;-69
2024/01/14 02:52:15;;;;;;;3.90;2.20;;;;;;;-4.98;77.96;99010.23;79376;1301;3018778;-66
2024/01/14 02:54:42;;;;;;;7.50;2.90;;;;;;;-5.20;78.80;99014.61;79349;1298;3012347;-67
2024/01/14 02:57:10;;;;;;;4.60;1.90;;;;;;;-5.28;79.67;99017.90;78149;1298;3025067;-66
2024/01/14 02:59:37;;;;;;;5.00;2.50;;;;;;;-5.62;80.69;99012.38;79513;1298;3019086;-66
2024/01/14 03:02:04;;;;;;;5.00;2.50;;;;;;;-5.70;81.92;99014.78;79086;1299;3016072;-66
2024/01/14 03:04:32;;;;;;;5.00;2.70;;;;;;;-5.52;81.18;99013.37;78143;1300;3054340;-67
2024/01/14 03:06:58;;;;;;;7.30;2.90;;;;;;;-5.69;81.41;99015.29;79415;1301;3012920;-65
2024/01/14 03:09:26;;;;;;;7.00;2.80;;;;;;;-5.95;82.85;99010.39;79239;1301;3011623;-67
2024/01/14 03:11:53;;;;;;;8.40;2.80;;;;;;;-5.79;83.13;99004.21;78128;1300;3027538;-68
2024/01/14 03:14:20;;;;;;;4.30;1.80;;;;;;;-5.98;83.75;99004.27;79420;1296;3018495;-66
2024/01/14 03:16:46;;;;;;;6.10;2.90;;;;;;;-5.90;84.02;99000.31;79360;1296;3011418;-65
2024/01/14 03:19:14;;;;;;;5.40;3.20;;;;;;;-5.95;84.54;99003.91;78228;1298;3026479;-65
2024/01/14 03:21:41;;;;;;;7.70;3.70;;;;;;;-5.96;84.95;98996.08;79371;1300;3013665;-67
2024/01/14 03:24:07;;;;;;;5.00;3.00;;;;;;;-5.99;84.69;98988.75;79381;1300;3011768;-67
2024/01/14 03:26:35;;;;;;;4.60;2.50;;;;;;;-5.93;85.07;98983.10;78135;1301;3027147;-67
2024/01/14 03:29:02;;;;;;;3.70;2.20;;;;;;;-6.05;85.36;98986.89;79365;1297;3013461;-65
2024/01/14 03:31:28;;;;;;;3.10;1.80;;;;;;;-5.35;84.73;98990.77;79375;1300;3011543;-66
2024/01/14 03:33:56;;;;;;;4.00;2.40;;;;;;;-4.70;81.92;98986.67;78280;1296;3025638;-66
2024/01/14 03:36:22;;;;;;;3.70;2.40;;;;;;;-4.57;80.28;98970.34;79191;1301;3013753;-65
2024/01/14 03:38:49;;;;;;;2.90;1.90;;;;;;;-4.81;80.51;98973.95;79342;1301;3011400;-66
2024/01/14 03:41:17;;;;;;;4.60;2.30;;;;;;;-5.08;81.65;98973.75;78115;1298;3026733;-67
2024/01/14 03:43:44;;;;;;;5.60;2.90;;;;;;;-4.90;81.34;98977.40;79449;1297;3018613;-65
2024/01/14 03:46:10;;;;;;;4.60;2.40;;;;;;;-5.04;81.18;98971.85;79357;1296;3011937;-65
2024/01/14 03:48:38;;;;;;;4.90;2.80;;;;;;;-5.14;82.01;98976.67;78210;1299;3026500;-67
2024/01/14 03:51:05;;;;;;;4.30;2.60;;;;;;;-5.21;82.16;98976.54;79367;1300;3011929;-67
2024/01/14 03:53:32;;;;;;;4.50;3.00;;;;;;;-5.37;83.09;98980.88;79367;1301;3011517;-66
2024/01/14 03:56:00;;;;;;;6.20;3.30;;;;;;;-5.37;83.75;98977.13;78089;1298;3029151;-66
2024/01/14 03:58:27;;;;;;;2.90;2.10;;;;;;;-5.40;84.05;98969.79;79413;1298;3018695;-65
2024/01/14 04:00:54;;;;;;;8.20;3.10;;;;;;;-5.37;84.02;98971.15;79339;1296;3011360;-65
2024/01/14 04:03:22;;;;;;;7.00;2.70;;;;;;;-5.44;84.05;98974.42;78140;1297;3026629;-65
2024/01/14 04:05:51;;;;;;;4.90;2.90;;;;;;;-5.57;84.85;98970.71;79344;1301;3013529;-71
2024/01/14 04:08:17;;;;;;;5.70;3.00;;;;;;;-5.42;85.33;98968.44;79473;1298;3011624;-65
2024/01/14 04:10:45;;;;;;;7.60;3.30;;;;;;;-5.56;85.11;98967.64;78161;1299;3067732;-64
2024/01/14 04:13:12;;;;;;;5.00;2.70;;;;;;;-5.72;86.22;98970.92;79464;1299;3013036;-66
2024/01/14 04:15:39;;;;;;;5.70;3.30;;;;;;;-5.09;85.16;98976.64;79335;1298;3011595;-66
2024/01/14 04:18:06;;;;;;;6.60;3.50;;;;;;;-4.47;82.85;98973.86;78171;1296;3027362;-66
2024/01/14 04:20:33;;;;;;;6.10;3.30;;;;;;;-4.22;81.21;98970.59;79334;1300;3013537;-66
2024/01/14 04:23:00;;;;;;;11.30;3.60;;;;;;;-4.36;81.09;98971.05;79356;1300;3011530;-67
2024/01/14 04:25:30;;;;;;;7.90;2.90;;;;;;;-4.45;81.06;98967.54;78125;1301;3026558;-67
2024/01/14 04:27:56;;;;;;;7.80;2.90;;;;;;;-4.64;81.43;98973.48;79550;1298;3013458;-67
2024/01/14 04:30:23;;;;;;;7.60;3.60;;;;;;;-4.66;81.84;98969.90;79442;1297;3011607;-65
2024/01/14 04:32:51;;;;;;;7.10;3.20;;;;;;;-4.81;82.30;98967.77;78276;1298;3054235;-65
2024/01/14 04:35:17;;;;;;;5.80;3.40;;;;;;;-4.78;82.54;98963.33;79594;1301;3014945;-65
2024/01/14 04:37:44;;;;;;;8.70;3.80;;;;;;;-4.84;82.58;98958.40;79430;1300;3011953;-68
2024/01/14 04:40:12;;;;;;;6.90;3.60;;;;;;;-4.98;83.10;98956.11;78135;1298;3027082;-67
2024/01/14 04:42:38;;;;;;;9.30;3.90;;;;;;;-5.04;83.73;98958.54;79432;1297;3020576;-66
2024/01/14 04:45:05;;;;;;;8.70;3.90;;;;;;;-5.02;83.65;98961.92;79430;1298;3011736;-66
2024/01/14 04:47:35;;;;;;;8.60;3.70;;;;;;;-5.01;84.03;98966.88;78236;1297;3052996;-65
2024/01/14 04:50:02;;;;;;;7.20;4.00;;;;;;;-5.18;84.69;98966.80;79365;1298;3013809;-66
2024/01/14 04:52:28;;;;;;;6.30;3.70;;;;;;;-5.03;84.89;98956.81;79416;1298;3011622;-67
2024/01/14 04:54:56;;;;;;;10.30;3.40;;;;;;;-4.89;84.27;98957.42;78330;1297;3068535;-69
2024/01/14 04:57:23;;;;;;;11.30;4.40;;;;;;;-4.97;84.57;98949.95;79515;1295;3013818;-66
2024/01/14 04:59:50;;;;;;;6.20;2.80;;;;;;;-4.99;84.83;98944.33;79381;1295;3013689;-67
2024/01/14 05:02:18;;;;;;;6.10;3.40;;;;;;;-4.52;84.34;98942.79;78179;1296;3025696;-65
2024/01/14 05:04:44;;;;;;;8.90;4.00;;;;;;;-3.90;81.84;98944.30;79462;1300;3012824;-65
2024/01/14 05:07:11;;;;;;;8.50;3.80;;;;;;;-3.81;80.88;98939.57;79505;1301;3013089;-66
2024/01/14 05:09:39;;;;;;;5.30;3.60;;;;;;;-4.01;81.11;98936.70;78190;1295;3026164;-67
2024/01/14 05:12:05;;;;;;;8.70;4.10;;;;;;;-4.05;81.36;98938.98;79438;1295;3013243;-67
2024/01/14 05:14:32;;;;;;;11.60;5.50;;;;;;;-4.13;81.41;98936.98;79394;1300;3011798;-67
2024/01/14 05:17:00;;;;;;;11.10;5.40;;;;;;;-4.46;82.74;98936.25;78213;1296;3026606;-67
2024/01/14 05:19:27;;;;;;;13.90;5.90;;;;;;;-4.40;82.69;98940.13;79308;1299;3019084;-67
2024/01/14 05:21:54;;;;;;;11.60;4.90;;;;;;;-4.75;83.88;98943.65;79524;1298;3011666;-66
2024/01/14 05:24:22;;;;;;;13.40;5.60;;;;;;;-4.77;84.84;98941.96;78206;1295;3025284;-67
2024/01/14 05:26:48;;;;;;;16.70;5.10;;;;;;;-4.75;84.83;98942.98;79472;1295;3018755;-67
2024/01/14 05:29:15;;;;;;;17.80;6.30;;;;;;;-4.85;85.05;98943.72;79432;1295;3011951;-68
2024/01/14 05:31:43;;;;;;;18.80;5.50;;;;;;;-4.88;85.54;98937.42;78272;1298;3026606;-67
2024/01/14 05:34:09;;;;;;;13.30;5.10;;;;;;;-4.89;85.59;98937.93;79401;1300;3013551;-67
2024/01/14 05:36:36;;;;;;;16.70;6.70;;;;;;;-4.85;85.65;98936.72;79386;1300;3011777;-68
2024/01/14 05:39:04;;;;;;;18.50;7.30;;;;;;;-4.90;86.12;98933.34;78184;1298;3025934;-68
2024/01/14 05:41:31;;;;;;;11.20;4.00;;;;;;;-4.87;86.72;98936.73;79507;1295;3013592;-69
2024/01/14 05:43:57;;;;;;;17.10;5.10;;;;;;;-4.19;85.12;98941.30;79420;1295;3011623;-67
2024/01/14 05:46:25;;;;;;;10.00;4.30;;;;;;;-3.82;83.47;98943.69;78208;1301;3051891;-68
2024/01/14 05:48:52;;;;;;;23.10;5.90;;;;;;;-3.77;82.13;98936.77;79385;1301;3013465;-68
2024/01/14 05:51:18;;;;;;;12.10;5.20;;;;;;;-3.77;82.28;98935.76;79416;1295;3011641;-68
2024/01/14 05:53:46;;;;;;;13.60;6.00;;;;;;;-3.78;82.03;98932.00;78165;1295;3025417;-68
2024/01/14 05:56:23;;;;;;;11.30;4.70;;;;;;;-4.02;82.58;98941.66;79491;1295;3013488;-67
2024/01/14 05:58:50;;;;;;;11.90;5.50;;;;;;;-4.24;83.18;98938.79;78243;1301;3049325;-67
2024/01/14 06:01:17;;;;;;;11.00;4.90;;;;;;;-4.49;84.44;98940.21;79393;1300;3013563;-67
2024/01/14 06:03:43;;;;;;;12.00;5.60;;;;;;;-4.58;85.08;98928.65;79477;1301;3011541;-67
2024/01/14 06:06:11;;;;;;;15.50;6.10;;;;;;;-4.56;85.57;98933.59;78201;1300;3026351;-67
2024/01/14 06:08:38;;;;;;;8.90;4.80;;;;;;;-4.65;85.57;98935.55;79533;1296;3018722;-67
2024/01/14 06:11:05;;;;;;;12.30;5.60;;;;;;;-4.66;86.01;98938.63;79410;1298;3012978;-66
2024/01/14 06:13:33;;;;;;;13.60;5.80;;;;;;;-4.76;86.00;98932.73;78342;1300;3025926;-66
2024/01/14 06:16:00;;;;;;;11.60;4.90;;;;;;;-4.79;86.45;98932.41;79502;1300;3012974;-68
2024/01/14 06:18:28;;;;;;;8.40;5.00;;;;;;;-4.79;86.62;98932.23;79407;1301;3011586;-67
2024/01/14 06:20:56;;;;;;;9.90;4.50;;;;;;;-4.47;86.48;98935.40;78193;1301;3051179;-67
2024/01/14 06:23:23;;;;;;;11.20;4.80;;;;;;;-3.77;84.48;98934.04;79365;1301;3013061;-66
2024/01/14 06:25:50;;;;;;;9.00;4.30;;;;;;;-3.77;83.15;98927.03;79313;1296;3011627;-69
2024/01/14 06:28:18;;;;;;;9.10;5.30;;;;;;;-4.10;83.65;98930.80;78213;1297;3048979;-70
2024/01/14 06:30:44;;;;;;;10.40;4.90;;;;;;;-4.26;84.35;98924.63;79383;1301;3012910;-70
2024/01/14 06:33:12;;;;;;;10.00;4.70;;;;;;;-4.20;84.26;98920.13;79383;1298;3012091;-67
2024/01/14 06:35:39;;;;;;;13.50;5.40;;;;;;;-4.31;84.42;98918.84;78165;1300;3028112;-68
2024/01/14 06:38:09;;;;;;;10.60;4.40;;;;;;;-4.30;84.63;98917.48;79399;1298;3012967;-66
2024/01/14 06:40:35;;;;;;;11.70;5.00;;;;;;;-4.58;85.12;98905.92;79373;1298;3011679;-68
2024/01/14 06:43:04;;;;;;;10.00;4.90;;;;;;;-4.59;86.11;98902.01;78175;1300;3049808;-68
2024/01/14 06:45:30;;;;;;;10.00;4.80;;;;;;;-4.52;85.96;98906.55;79535;1299;3013724;-66
2024/01/14 06:47:57;;;;;;;16.70;7.30;;;;;;;-4.40;85.81;98910.06;79688;1298;3013144;-66
2024/01/14 06:50:25;;;;;;;11.80;5.90;;;;;;;-4.42;85.73;98911.27;78255;1300;3026006;-67
2024/01/14 06:52:51;;;;;;;11.30;4.80;;;;;;;-4.56;86.15;98910.35;79449;1299;3013329;-67
2024/01/14 06:55:18;;;;;;;8.20;3.60;;;;;;;-4.57;86.91;98909.52;79404;1299;3012506;-67
2024/01/14 06:57:46;;;;;;;11.40;3.90;;;;;;;-4.12;86.38;98902.23;78214;1295;3027505;-69
2024/01/14 07:00:13;;;;;;;12.30;5.50;;;;;;;-3.39;83.70;98897.48;79491;1300;3013509;-69
2024/01/14 07:02:40;;;;;;;13.30;5.30;;;;;;;-3.29;82.31;98893.05;79473;1295;3013306;-69
2024/01/14 07:05:09;;;;;;;12.10;5.40;;;;;;;-3.36;81.99;98895.54;78157;1296;3051852;-70
2024/01/14 07:07:36;;;;;;;12.00;5.40;;;;;;;-3.53;81.74;98894.41;79489;1296;3013056;-68
2024/01/14 07:10:04;;;;;;;11.30;4.60;;;;;;;-3.70;82.49;98885.70;79408;1295;3011615;-68
2024/01/14 07:12:32;;;;;;;12.40;5.20;;;;;;;-3.80;83.12;98887.70;78190;1295;3047822;-69
2024/01/14 07:14:59;;;;;;;10.60;5.70;;;;;;;-4.07;83.94;98899.80;79469;1299;3013538;-66
2024/01/14 07:17:25;;;;;;;10.30;5.10;;;;;;;-3.96;84.22;98906.88;79352;1295;3011739;-67
2024/01/14 07:19:53;;;;;;;10.90;5.30;;;;;;;-4.00;84.10;98906.23;78209;1300;3026157;-68
2024/01/14 07:22:20;;;;;;;13.90;6.10;;;;;;;-4.15;84.44;98904.34;79404;1296;3012932;-66
2024/01/14 07:24:46;;;;;;;13.70;6.80;;;;;;;-4.08;84.82;98903.77;79473;1295;3011630;-66
2024/01/14 07:27:14;;;;;;;14.20;6.10;;;;;;;-4.26;84.89;98903.40;78162;1295;3028090;-68
2024/01/14 07:29:40;;;;;;;12.20;5.80;;;;;;;-4.25;85.30;98903.24;79420;1300;3012852;-68
2024/01/14 07:32:07;;;;;;;11.00;5.80;;;;;;;-4.23;85.39;98902.52;79385;1300;3011626;-68
2024/01/14 07:34:37;;;;;;;10.80;4.70;;;;;;;-4.37;85.99;98901.46;78231;1301;3025488;-67
2024/01/14 07:37:04;;;;;;;8.40;4.60;;;;;;;-3.83;85.22;98901.24;79373;1299;3013912;-67
2024/01/14 07:39:33;;;;;;;8.90;4.90;;;;;;;-3.35;82.57;98897.08;78874;1296;3011631;-67
2024/01/14 07:42:00;;;;;;;12.60;5.00;;;;;;;-3.30;81.97;98896.84;79350;1300;3013217;-67
2024/01/14 07:44:26;;;;;;;11.40;5.90;;;;;;;-3.49;81.98;98900.34;79415;1297;3011564;-70
2024/01/14 07:46:54;;;;;;;14.30;6.30;;;;;;;-3.60;82.62;98900.48;78230;1298;3026591;-68
2024/01/14 07:49:21;;;;;;;13.60;6.10;;;;;;;-3.52;82.31;98896.60;79564;1298;3013348;-66
2024/01/14 07:51:48;;;;;;;11.90;5.90;;;;;;;-3.50;82.71;98893.33;79529;1300;3011655;-66
2024/01/14 07:54:16;;;;;;;15.00;5.70;;;;;;;-3.55;82.56;98894.42;78319;1295;3051416;-67
2024/01/14 07:56:44;;;;;;;10.30;5.90;;;;;;;-3.49;82.54;98887.16;79432;1295;3013187;-70
2024/01/14 07:59:10;;;;;;;10.60;5.60;;;;;;;-3.69;82.92;98895.44;79503;1295;3011888;-68
2024/01/14 08:01:38;;;;;;;10.50;5.80;;;;;;;-3.90;83.89;98898.94;78169;1298;3048456;-67
2024/01/14 08:04:05;;;;;;;12.20;6.10;;;;;;;-4.01;85.12;98894.27;79525;1300;3013058;-67
2024/01/14 08:06:32;;;;;;;15.30;6.80;;;;;;;-3.77;84.85;98889.02;79669;1300;3013253;-67
2024/01/14 08:09:00;;;;;;;14.20;6.90;;;;;;;-3.96;85.13;98888.05;78241;1295;3026126;-68
2024/01/14 08:11:26;;;;;;;16.00;7.60;;;;;;;-3.86;85.25;98887.08;79937;1298;3019292;-68
2024/01/14 08:13:53;;;;;;;11.00;5.90;;;;;;;-3.81;85.50;98889.27;79571;1299;3011514;-67
2024/01/14 08:16:20;;;;;;;13.40;6.90;;;;;;;-3.20;84.25;98882.65;78313;1295;3026347;-68
2024/01/14 08:18:47;;;;;;;13.60;7.10;;;;;;;-2.56;82.19;98878.73;79672;1301;3012660;-67
2024/01/14 08:21:14;;;;;;;12.80;6.90;;;;;;;-2.66;80.60;98875.83;79486;1297;3011608;-68
2024/01/14 08:23:42;;;;;;;16.20;7.00;;;;;;;-2.91;81.03;98881.37;78229;1299;3026097;-68
2024/01/14 08:26:08;;;;;;;21.00;8.50;;;;;;;-3.01;81.65;98869.86;79333;1298;3018632;-66
2024/01/14 08:28:36;;;;;;;13.90;7.60;;;;;;;-3.04;82.40;98870.94;79525;1296;3012057;-69
2024/01/14 08:31:04;;;;;;;12.50;6.70;;;;;;;-2.91;81.87;98868.00;78480;1295;3049220;-71
2024/01/14 08:33:30;;;;;;;13.50;7.00;;;;;;;-3.07;81.80;98860.02;79611;1300;3013485;-70
2024/01/14 08:35:57;;;;;;;15.50;8.10;;;;;;;-3.17;82.33;98854.50;79501;1295;3013843;-68
2024/01/14 08:38:25;;;;;;;18.10;8.40;;;;;;;-3.05;82.18;98851.60;78323;1297;3025285;-68
2024/01/14 08:40:52;;;;;;;15.50;7.10;;;;;;;-3.35;82.78;98853.05;79557;1297;3018696;-67
2024/01/14 08:43:18;;;;;;;15.10;8.40;;;;;;;-3.25;83.16;98845.71;79574;1295;3013306;-68
2024/01/14 08:45:46;;;;;;;15.30;7.50;;;;;;;-3.23;82.87;98841.41;78178;1295;3026381;-67
2024/01/14 08:48:13;;;;;;;21.30;7.90;;;;;;;-3.16;82.73;98843.20;79658;1300;3012944;-69
2024/01/14 08:50:40;;;;;;;14.50;8.00;;;;;;;-3.24;82.94;98839.02;79434;1296;3013080;-68
2024/01/14 08:53:08;;;;;;;16.30;8.80;;;;;;;-3.19;83.29;98838.27;78198;1301;3026934;-69
2024/01/14 08:55:34;;;;;;;12.70;7.60;;;;;;;-3.20;83.33;98830.92;79444;1295;3019145;-68
2024/01/14 08:58:01;;;;;;;11.90;7.10;;;;;;;-3.21;83.23;98832.98;79436;1300;3011932;-67
2024/01/14 09:00:29;;;;;;;17.00;9.00;;;;;;;-3.21;83.78;98834.70;78398;1295;3026462;-69
2024/01/14 09:02:56;;;;;;;16.70;7.00;;;;;;;-3.11;83.60;98828.04;79622;1301;3012992;-69
2024/01/14 09:05:22;;;;;;;16.20;7.80;;;;;;;-3.03;83.02;98826.20;79509;1301;3011623;-71
2024/01/14 09:07:51;;;;;;;17.10;7.30;;;;;;;-3.15;83.48;98825.38;78255;1297;3051830;-68
2024/01/14 09:10:18;;;;;;;14.00;7.30;;;;;;;-2.62;82.75;98821.05;79495;1298;3012925;-67
2024/01/14 09:12:45;;;;;;;12.70;6.80;;;;;;;-2.08;80.82;98818.88;79467;1297;3011636;-68
2024/01/14 09:15:13;;;;;;;13.40;7.10;;;;;;;-2.00;79.80;98817.69;78199;1301;3028236;-68
2024/01/14 09:17:39;;;;;;;13.10;7.50;;;;;;;-2.09;79.61;98810.16;79502;1300;3014836;-68
2024/01/14 09:20:07;;;;;;;19.40;9.00;;;;;;;-2.04;79.75;98807.65;79452;1300;3011820;-69
2024/01/14 09:22:35;;;;;;;17.90;7.30;;;;;;;-2.17;79.49;98806.19;78317;1297;3050691;-69
2024/01/14 09:25:02;;;;;;;17.70;8.20;;;;;;;-2.42;80.61;98806.30;79484;1299;3013712;-68
2024/01/14 09:27:30;;;;;;;19.90;8.70;;;;;;;-2.41;81.07;98795.67;79402;1300;3011993;-68
2024/01/14 09:29:59;;;;;;;15.70;8.70;;;;;;;-2.41;81.26;98803.05;78252;1298;3048942;-68
2024/01/14 09:32:26;;;;;;;18.60;9.00;;;;;;;-2.59;81.82;98791.35;79563;1298;3011474;-68
2024/01/14 09:34:52;;;;;;;21.90;9.40;;;;;;;-2.50;82.13;98791.19;79496;1296;3011573;-69
2024/01/14 09:37:20;;;;;;;19.50;9.80;;;;;;;-2.56;82.17;98790.27;78206;1301;3052030;-68
2024/01/14 09:39:47;;;;;;;20.50;9.60;;;;;;;-2.61;82.53;98778.69;79536;1298;3013471;-66
2024/01/14 09:42:29;;;;;;;18.50;9.80;;;;;;;-2.67;83.00;98780.17;79480;1301;3013623;-69
2024/01/14 09:45:01;;;;;;;23.30;10.70;;;;;;;-2.64;83.44;98773.78;78113;1301;3050508;-71
2024/01/14 09:47:31;;;;;;;16.00;8.30;;;;;;;-2.66;83.84;98769.71;79312;1301;3013731;-70
2024/01/14 09:49:59;;;;;;;19.70;10.10;;;;;;;-2.64;83.94;98770.52;78174;1301;3051851;-68
2024/01/14 09:52:25;;;;;;;23.20;11.50;;;;;;;-2.60;83.87;98764.63;79453;1295;3011739;-67
2024/01/14 09:54:52;;;;;;;23.00;10.50;;;;;;;-2.78;84.68;98762.55;79516;1295;3011614;-73
2024/01/14 09:57:22;;;;;;;17.90;8.30;;;;;;;-2.66;84.62;98757.70;78243;1301;3050173;-69
2024/01/14 09:59:52;;;;;;;18.90;9.90;;;;;;;-2.11;84.06;98752.69;79471;1299;3013249;-71
2024/01/14 10:02:20;;;;;;;15.10;9.00;;;;;;;-1.51;81.66;98752.95;78197;1300;3049760;-68
2024/01/14 10:04:46;;;;;;;17.60;9.90;;;;;;;-1.27;80.05;98756.34;79563;1301;3013423;-72
2024/01/14 10:07:13;;;;;;;19.10;10.50;;;;;;;-1.31;79.56;98750.07;79375;1301;3011553;-68
2024/01/14 10:09:42;;;;;;;22.30;9.80;;;;;;;-1.48;79.86;98746.36;78236;1295;3024738;-70
2024/01/14 10:12:09;;;;;;;21.20;10.70;;;;;;;-1.62;80.64;98743.57;79720;1299;3011817;-67
2024/01/14 10:14:36;;;;;;;23.40;12.00;;;;;;;-1.68;81.27;98746.13;79320;1297;3011875;-65
2024/01/14 10:17:04;;;;;;;23.70;11.20;;;;;;;-2.01;82.50;98744.95;78184;1298;3049154;-65
2024/01/14 10:19:31;;;;;;;22.50;12.20;;;;;;;-1.94;83.08;98742.20;79486;1297;3013433;-67
2024/01/14 10:21:57;;;;;;;25.60;12.20;;;;;;;-1.85;83.06;98735.15;79454;1300;3013231;-67
2024/01/14 10:24:25;;;;;;;19.50;9.50;;;;;;;-2.08;83.78;98735.82;78277;1300;3028325;-68
2024/01/14 10:26:55;;;;;;;24.10;11.20;;;;;;;-2.03;84.44;98729.89;79361;1298;3013488;-68
2024/01/14 10:29:24;;;;;;;30.70;12.50;;;;;;;-1.98;84.69;98726.52;79121;1296;3012217;-70
2024/01/14 10:31:50;;;;;;;21.40;10.70;;;;;;;-1.95;84.75;98729.38;79529;1295;3019442;-67
2024/01/14 10:34:17;;;;;;;23.90;11.50;;;;;;;-2.02;84.68;98730.20;79382;1302;3011634;-68
2024/01/14 10:36:45;;;;;;;16.20;8.80;;;;;;;-2.18;85.65;98732.25;78367;1300;3025593;-68
2024/01/14 10:39:12;;;;;;;18.50;9.90;;;;;;;-1.77;85.87;98722.77;79604;1300;3013642;-68
2024/01/14 10:41:39;;;;;;;19.90;9.30;;;;;;;-0.96;83.51;98716.55;79525;1298;3012191;-70
2024/01/14 10:44:07;;;;;;;16.00;8.40;;;;;;;-0.94;81.85;98719.77;78276;1301;3025540;-69
2024/01/14 10:46:34;;;;;;;16.00;8.30;;;;;;;-1.37;82.71;98725.29;79325;1298;3020497;-68
2024/01/14 10:49:06;;;;;;;18.00;9.10;;;;;;;-1.68;84.74;98722.74;79190;1303;3011992;-68
2024/01/14 10:51:40;;;;;;;17.90;9.40;;;;;;;-1.61;84.65;98713.84;78413;1300;3050969;-66
2024/01/14 10:54:09;;;;;;;20.50;9.80;;;;;;;-1.71;85.69;98712.36;79476;1300;3011600;-64
2024/01/14 10:56:40;;;;;;;18.50;9.40;;;;;;;-1.54;84.96;98708.36;78320;1300;3052255;-67
2024/01/14 10:59:08;;;;;;;12.90;7.50;;;;;;;-1.79;85.48;98708.07;79672;1300;3011924;-67
2024/01/14 11:01:38;;;;;;;16.80;8.90;;;;;;;-1.82;85.80;98704.17;78294;1295;3047810;-69
2024/01/14 11:04:05;;;;;;;13.20;8.50;;;;;;;-1.92;85.90;98698.56;79390;1295;3013595;-70
2024/01/14 11:06:32;;;;;;;13.80;8.00;;;;;;;-2.08;86.90;98699.26;79717;1297;3011944;-68
2024/01/14 11:09:00;;;;;;;10.90;6.00;;;;;;;-1.99;87.47;98696.16;78199;1301;3051889;-69
2024/01/14 11:11:37;;;;;;;13.00;7.50;;;;;;;-1.23;85.55;98688.69;79369;1298;3013609;-67